createdAt,value
2018-11-07T00:00:18.471Z,11.40
2018-11-07T00:02:47.027Z,11.40
2018-11-07T00:05:16.781Z,11.30
2018-11-07T00:07:45.218Z,11.10
2018-11-07T00:10:13.769Z,10.90
2018-11-07T00:12:42.223Z,10.70
2018-11-07T00:15:13.334Z,10.60
2018-11-07T00:17:41.916Z,10.40
2018-11-07T00:20:11.376Z,10.50
2018-11-07T00:22:39.972Z,10.60
2018-11-07T00:25:09.785Z,10.70
2018-11-07T00:27:38.378Z,10.70
2018-11-07T00:30:08.147Z,11.00
2018-11-07T00:32:36.854Z,11.10
2018-11-07T00:35:05.945Z,11.10
2018-11-07T00:37:34.325Z,11.30
2018-11-07T00:40:02.807Z,11.30
2018-11-07T00:42:31.302Z,11.20
2018-11-07T00:45:12.643Z,11.10
2018-11-07T00:47:41.345Z,11.20
2018-11-07T00:50:13.705Z,11.10
2018-11-07T00:52:42.704Z,10.90
2018-11-07T00:55:11.704Z,10.70
2018-11-07T00:57:40.192Z,10.70
2018-11-07T01:00:10.928Z,10.50
2018-11-07T01:02:39.425Z,10.60
2018-11-07T01:05:09.519Z,10.50
2018-11-07T01:07:37.994Z,10.50
2018-11-07T01:10:07.476Z,10.40
2018-11-07T01:12:43.267Z,10.40
2018-11-07T01:15:12.534Z,10.70
2018-11-07T01:17:41.151Z,10.90
2018-11-07T01:20:12.253Z,10.80
2018-11-07T01:22:41.215Z,10.70
2018-11-07T01:25:09.809Z,10.70
2018-11-07T01:27:38.622Z,10.70
2018-11-07T01:30:09.194Z,10.80
2018-11-07T01:32:37.690Z,10.80
2018-11-07T01:35:06.452Z,10.70
2018-11-07T01:37:34.960Z,10.70
2018-11-07T01:40:03.541Z,10.80
2018-11-07T01:42:32.045Z,10.70
2018-11-07T01:45:00.580Z,10.40
2018-11-07T01:47:29.040Z,10.30
2018-11-07T01:49:57.538Z,10.10
2018-11-07T01:52:26.014Z,10.00
2018-11-07T01:54:54.498Z,9.90
2018-11-07T01:57:22.989Z,9.60
2018-11-07T01:59:51.443Z,9.50
2018-11-07T02:02:19.876Z,9.50
2018-11-07T02:04:48.332Z,9.50
2018-11-07T02:07:16.776Z,9.50
2018-11-07T02:09:45.240Z,9.60
2018-11-07T02:12:13.713Z,9.60
2018-11-07T02:14:42.166Z,9.60
2018-11-07T02:17:10.642Z,9.60
2018-11-07T02:19:39.190Z,9.70
2018-11-07T02:22:07.713Z,9.70
2018-11-07T02:24:36.173Z,9.70
2018-11-07T02:27:04.865Z,9.70
2018-11-07T02:29:33.336Z,9.80
2018-11-07T02:32:01.797Z,9.80
2018-11-07T02:34:30.210Z,9.70
2018-11-07T02:36:58.720Z,9.50
2018-11-07T02:39:27.101Z,9.50
2018-11-07T02:41:55.577Z,9.50
2018-11-07T02:44:24.003Z,9.50
2018-11-07T02:46:52.449Z,9.60
2018-11-07T02:49:20.862Z,9.80
2018-11-07T02:51:49.304Z,9.90
2018-11-07T02:54:17.734Z,10.00
2018-11-07T02:56:46.196Z,10.00
2018-11-07T02:59:14.638Z,10.00
2018-11-07T03:01:43.087Z,10.10
2018-11-07T03:04:11.517Z,10.10
2018-11-07T03:06:39.968Z,10.10
2018-11-07T03:09:09.525Z,10.10
2018-11-07T03:11:37.949Z,10.00
2018-11-07T03:14:07.585Z,10.00
2018-11-07T03:16:36.206Z,10.00
2018-11-07T03:19:05.421Z,9.90
2018-11-07T03:21:33.833Z,10.00
2018-11-07T03:24:02.275Z,10.10
2018-11-07T03:26:30.702Z,10.10
2018-11-07T03:28:59.141Z,10.10
2018-11-07T03:31:27.573Z,10.00
2018-11-07T03:33:56.008Z,10.00
2018-11-07T03:36:24.453Z,10.20
2018-11-07T03:38:52.868Z,10.20
2018-11-07T03:41:21.318Z,10.30
2018-11-07T03:43:49.734Z,10.50
2018-11-07T03:46:18.244Z,10.50
2018-11-07T03:48:46.678Z,10.60
2018-11-07T03:51:15.121Z,10.50
2018-11-07T03:53:43.570Z,10.50
2018-11-07T03:56:12.030Z,10.50
2018-11-07T03:58:40.498Z,10.40
2018-11-07T04:01:08.954Z,10.50
2018-11-07T04:03:37.378Z,10.50
2018-11-07T04:06:06.374Z,10.40
2018-11-07T04:08:34.810Z,10.40
2018-11-07T04:11:03.237Z,10.30
2018-11-07T04:13:31.685Z,10.20
2018-11-07T04:16:00.126Z,10.20
2018-11-07T04:18:28.538Z,10.00
2018-11-07T04:20:56.963Z,9.90
2018-11-07T04:23:25.398Z,9.70
2018-11-07T04:25:54.336Z,9.70
2018-11-07T04:28:22.768Z,9.60
2018-11-07T04:30:51.291Z,9.70
2018-11-07T04:33:19.718Z,9.80
2018-11-07T04:35:48.206Z,9.80
2018-11-07T04:38:16.630Z,10.00
2018-11-07T04:40:45.059Z,10.00
2018-11-07T04:43:13.593Z,10.10
2018-11-07T04:45:42.026Z,10.10
2018-11-07T04:48:10.465Z,10.10
2018-11-07T04:50:38.903Z,10.10
2018-11-07T04:53:07.333Z,10.10
2018-11-07T04:55:35.769Z,10.20
2018-11-07T04:58:04.202Z,10.10
2018-11-07T05:00:32.662Z,10.10
2018-11-07T05:03:01.111Z,10.00
2018-11-07T05:05:29.544Z,10.10
2018-11-07T05:07:57.982Z,10.10
2018-11-07T05:10:26.414Z,10.00
2018-11-07T05:12:54.881Z,9.90
2018-11-07T05:15:23.292Z,10.00
2018-11-07T05:17:51.756Z,10.00
2018-11-07T05:20:20.180Z,10.10
2018-11-07T05:22:48.615Z,10.10
2018-11-07T05:25:17.035Z,10.10
2018-11-07T05:27:45.505Z,10.00
2018-11-07T05:30:13.958Z,9.90
2018-11-07T05:32:42.415Z,9.80
2018-11-07T05:35:10.843Z,9.80
2018-11-07T05:37:39.282Z,9.90
2018-11-07T05:40:07.744Z,9.90
2018-11-07T05:42:36.174Z,10.00
2018-11-07T05:45:04.670Z,9.80
2018-11-07T05:47:33.753Z,9.80
2018-11-07T05:50:02.197Z,9.80
2018-11-07T05:52:30.755Z,9.80
2018-11-07T05:54:59.220Z,9.80
2018-11-07T05:57:27.665Z,9.80
2018-11-07T05:59:56.101Z,9.60
2018-11-07T06:02:24.566Z,9.60
2018-11-07T06:04:53.022Z,9.80
2018-11-07T06:07:21.434Z,9.80
2018-11-07T06:09:49.853Z,9.80
2018-11-07T06:12:18.294Z,9.80
2018-11-07T06:14:46.721Z,9.50
2018-11-07T06:17:15.437Z,9.50
2018-11-07T06:19:44.398Z,9.50
2018-11-07T06:22:12.840Z,9.30
2018-11-07T06:24:41.287Z,9.20
2018-11-07T06:27:09.726Z,9.20
2018-11-07T06:29:38.177Z,9.10
2018-11-07T06:32:06.655Z,9.20
2018-11-07T06:34:35.070Z,9.10
2018-11-07T06:37:04.474Z,9.00
2018-11-07T06:39:32.904Z,9.20
2018-11-07T06:42:01.414Z,9.20
2018-11-07T06:44:29.892Z,9.30
2018-11-07T06:46:58.303Z,9.20
2018-11-07T06:49:26.720Z,9.20
2018-11-07T06:51:55.124Z,9.00
2018-11-07T06:54:23.563Z,8.90
2018-11-07T06:56:51.962Z,8.70
2018-11-07T06:59:20.408Z,8.30
2018-11-07T07:01:48.829Z,8.10
2018-11-07T07:04:17.415Z,8.10
2018-11-07T07:06:45.871Z,8.00
2018-11-07T07:09:14.326Z,7.90
2018-11-07T07:11:42.758Z,7.90
2018-11-07T07:14:11.775Z,7.80
2018-11-07T07:16:40.238Z,7.80
2018-11-07T07:19:09.609Z,7.90
2018-11-07T07:21:38.026Z,7.90
2018-11-07T07:24:06.465Z,8.00
2018-11-07T07:26:34.958Z,8.10
2018-11-07T07:29:03.393Z,8.20
2018-11-07T07:31:31.829Z,8.30
2018-11-07T07:34:00.235Z,8.30
2018-11-07T07:36:28.765Z,8.50
2018-11-07T07:38:57.349Z,8.40
2018-11-07T07:41:25.825Z,8.30
2018-11-07T07:43:54.255Z,8.30
2018-11-07T07:46:22.820Z,8.70
2018-11-07T07:48:51.318Z,9.00
2018-11-07T07:51:19.742Z,9.00
2018-11-07T07:53:48.780Z,8.90
2018-11-07T07:56:17.202Z,8.80
2018-11-07T07:58:45.629Z,9.00
2018-11-07T08:01:14.098Z,9.30
2018-11-07T08:03:42.515Z,9.60
2018-11-07T08:06:10.951Z,9.70
2018-11-07T08:08:39.362Z,9.90
2018-11-07T08:11:07.784Z,10.00
2018-11-07T08:13:36.228Z,9.80
2018-11-07T08:16:04.679Z,9.90
2018-11-07T08:18:33.095Z,10.10
2018-11-07T08:21:01.647Z,10.30
2018-11-07T08:23:30.076Z,10.50
2018-11-07T08:25:58.549Z,11.00
2018-11-07T08:28:26.976Z,11.00
2018-11-07T08:30:55.506Z,11.20
2018-11-07T08:33:23.853Z,11.40
2018-11-07T08:35:52.287Z,11.50
2018-11-07T08:38:20.711Z,11.60
2018-11-07T08:40:49.149Z,11.60
2018-11-07T08:43:17.574Z,11.70
2018-11-07T08:45:45.987Z,11.70
2018-11-07T08:48:14.505Z,11.70
2018-11-07T08:50:42.853Z,11.80
2018-11-07T08:53:11.286Z,11.80
2018-11-07T08:55:39.707Z,12.00
2018-11-07T08:58:08.153Z,12.10
2018-11-07T09:00:36.719Z,12.20
2018-11-07T09:03:05.158Z,12.20
2018-11-07T09:05:33.602Z,12.20
2018-11-07T09:08:02.029Z,12.20
2018-11-07T09:10:30.450Z,12.20
2018-11-07T09:12:58.872Z,12.20
2018-11-07T09:15:27.293Z,12.20
2018-11-07T09:17:55.762Z,12.40
2018-11-07T09:20:24.806Z,12.50
2018-11-07T09:22:53.225Z,12.60
2018-11-07T09:25:21.733Z,12.70
2018-11-07T09:27:50.170Z,12.60
2018-11-07T09:30:20.875Z,12.70
2018-11-07T09:32:49.312Z,12.70
2018-11-07T09:35:18.145Z,12.70
2018-11-07T09:37:46.573Z,12.70
2018-11-07T09:40:16.320Z,12.70
2018-11-07T09:42:45.427Z,12.80
2018-11-07T09:45:15.312Z,13.00
2018-11-07T09:47:44.308Z,13.10
2018-11-07T09:50:13.531Z,13.10
2018-11-07T09:52:42.244Z,13.10
2018-11-07T09:55:13.675Z,13.10
2018-11-07T09:57:42.554Z,13.40
2018-11-07T10:00:13.891Z,13.50
2018-11-07T10:02:43.101Z,13.50
2018-11-07T10:05:12.173Z,13.80
2018-11-07T10:07:41.176Z,13.90
2018-11-07T10:10:11.949Z,13.90
2018-11-07T10:12:40.835Z,13.80
2018-11-07T10:15:10.094Z,13.90
2018-11-07T10:17:38.796Z,14.00
2018-11-07T10:20:11.160Z,13.90
2018-11-07T10:22:39.637Z,13.90
2018-11-07T10:25:08.623Z,13.70
2018-11-07T10:27:37.456Z,13.70
2018-11-07T10:30:07.130Z,13.60
2018-11-07T10:32:35.283Z,13.50
2018-11-07T10:35:04.463Z,13.60
2018-11-07T10:37:32.892Z,13.60
2018-11-07T10:40:01.627Z,13.60
2018-11-07T10:42:29.991Z,13.60
2018-11-07T10:44:58.443Z,13.60
2018-11-07T10:47:26.856Z,13.70
2018-11-07T10:49:55.275Z,13.70
2018-11-07T10:52:23.710Z,13.70
2018-11-07T10:54:52.181Z,13.80
2018-11-07T10:57:20.655Z,13.80
2018-11-07T10:59:49.073Z,13.80
2018-11-07T11:02:22.785Z,13.90
2018-11-07T11:04:51.232Z,13.90
2018-11-07T11:07:19.972Z,14.00
2018-11-07T11:09:49.182Z,14.00
2018-11-07T11:12:17.601Z,13.90
2018-11-07T11:14:46.018Z,14.00
2018-11-07T11:17:14.476Z,14.00
2018-11-07T11:19:42.890Z,14.00
2018-11-07T11:22:11.305Z,14.00
2018-11-07T11:24:39.748Z,14.00
2018-11-07T11:27:08.220Z,14.10
2018-11-07T11:29:36.602Z,14.00
2018-11-07T11:32:05.461Z,14.00
2018-11-07T11:34:33.949Z,14.10
2018-11-07T11:37:02.543Z,14.20
2018-11-07T11:39:30.981Z,14.20
2018-11-07T11:41:59.393Z,14.20
2018-11-07T11:44:27.848Z,14.20
2018-11-07T11:46:56.257Z,14.30
2018-11-07T11:49:24.677Z,14.30
2018-11-07T11:51:53.114Z,14.20
2018-11-07T11:54:21.525Z,14.10
2018-11-07T11:56:49.968Z,14.20
2018-11-07T11:59:18.551Z,14.20
2018-11-07T12:01:46.877Z,14.10
2018-11-07T12:04:15.306Z,14.10
2018-11-07T12:06:43.741Z,14.10
2018-11-07T12:09:12.215Z,14.10
2018-11-07T12:11:40.765Z,14.20
2018-11-07T12:14:09.138Z,14.20
2018-11-07T12:16:37.558Z,14.30
2018-11-07T12:19:06.055Z,14.30
2018-11-07T12:21:34.503Z,14.30
2018-11-07T12:24:02.950Z,14.40
2018-11-07T12:26:31.349Z,14.40
2018-11-07T12:28:59.757Z,14.40
2018-11-07T12:31:28.162Z,14.40
2018-11-07T12:33:56.595Z,14.40
2018-11-07T12:36:25.137Z,14.40
2018-11-07T12:38:53.525Z,14.40
2018-11-07T12:41:21.930Z,14.40
2018-11-07T12:43:50.350Z,14.40
2018-11-07T12:46:19.022Z,14.20
2018-11-07T12:48:47.925Z,14.20
2018-11-07T12:51:16.361Z,14.20
2018-11-07T12:53:44.841Z,14.20
2018-11-07T12:56:13.306Z,14.20
2018-11-07T12:58:41.715Z,14.20
2018-11-07T13:01:10.206Z,14.20
2018-11-07T13:03:38.642Z,14.20
2018-11-07T13:06:07.093Z,14.20
2018-11-07T13:08:35.570Z,14.30
2018-11-07T13:11:04.230Z,14.20
2018-11-07T13:13:32.647Z,14.20
2018-11-07T13:16:01.332Z,14.20
2018-11-07T13:18:30.741Z,14.20
2018-11-07T13:20:59.198Z,14.20
2018-11-07T13:23:27.664Z,14.20
2018-11-07T13:25:56.091Z,14.20
2018-11-07T13:28:24.708Z,14.10
2018-11-07T13:30:52.985Z,14.10
2018-11-07T13:33:21.413Z,14.10
2018-11-07T13:35:49.866Z,14.10
2018-11-07T13:38:18.641Z,14.10
2018-11-07T13:40:46.765Z,14.10
2018-11-07T13:43:15.190Z,14.00
2018-11-07T13:45:43.627Z,14.00
2018-11-07T13:48:12.033Z,14.10
2018-11-07T13:50:40.457Z,14.00
2018-11-07T13:53:08.982Z,14.00
2018-11-07T13:55:37.351Z,13.90
2018-11-07T13:58:06.013Z,13.90
2018-11-07T14:00:34.473Z,13.80
2018-11-07T14:03:02.914Z,13.80
2018-11-07T14:05:31.660Z,13.90
2018-11-07T14:07:59.986Z,13.90
2018-11-07T14:10:28.705Z,13.80
2018-11-07T14:12:57.135Z,13.80
2018-11-07T14:15:25.599Z,13.80
2018-11-07T14:17:54.104Z,13.70
2018-11-07T14:20:22.585Z,13.70
2018-11-07T14:22:51.050Z,13.60
2018-11-07T14:25:19.553Z,13.50
2018-11-07T14:27:48.146Z,13.40
2018-11-07T14:30:18.043Z,13.30
2018-11-07T14:32:51.035Z,13.30
2018-11-07T14:35:19.485Z,13.20
2018-11-07T14:37:47.913Z,13.10
2018-11-07T14:40:16.383Z,13.20
2018-11-07T14:42:44.805Z,13.20
2018-11-07T14:45:13.244Z,13.20
2018-11-07T14:47:42.434Z,13.20
2018-11-07T14:50:11.486Z,13.30
2018-11-07T14:52:39.926Z,13.40
2018-11-07T14:55:09.271Z,13.40
2018-11-07T14:57:37.710Z,13.30
2018-11-07T15:00:20.772Z,13.20
2018-11-07T15:02:49.265Z,13.20
2018-11-07T15:05:18.566Z,13.10
2018-11-07T15:07:47.006Z,13.00
2018-11-07T15:10:16.247Z,13.10
2018-11-07T15:12:44.680Z,13.00
2018-11-07T15:15:15.333Z,13.00
2018-11-07T15:17:43.781Z,13.00
2018-11-07T15:20:13.537Z,12.90
2018-11-07T15:22:42.132Z,12.90
2018-11-07T15:25:11.791Z,12.80
2018-11-07T15:27:41.029Z,12.70
2018-11-07T15:30:10.718Z,12.70
2018-11-07T15:32:39.618Z,12.70
2018-11-07T15:35:08.469Z,12.80
2018-11-07T15:37:37.402Z,12.70
2018-11-07T15:40:07.767Z,12.80
2018-11-07T15:42:36.194Z,12.90
2018-11-07T15:45:05.318Z,12.90
2018-11-07T15:47:33.745Z,12.90
2018-11-07T15:50:07.613Z,13.00
2018-11-07T15:52:36.055Z,13.00
2018-11-07T15:55:04.833Z,13.00
2018-11-07T15:57:33.279Z,13.00
2018-11-07T16:00:01.834Z,13.00
2018-11-07T16:02:30.340Z,13.00
2018-11-07T16:04:58.739Z,13.00
2018-11-07T16:07:27.190Z,12.90
2018-11-07T16:09:55.616Z,13.00
2018-11-07T16:12:24.064Z,12.90
2018-11-07T16:14:52.562Z,12.90
2018-11-07T16:17:20.953Z,12.90
2018-11-07T16:19:49.369Z,12.90
2018-11-07T16:22:17.765Z,12.90
2018-11-07T16:24:46.206Z,13.00
2018-11-07T16:27:14.643Z,13.00
2018-11-07T16:29:43.168Z,13.00
2018-11-07T16:32:11.590Z,13.00
2018-11-07T16:34:40.035Z,12.90
2018-11-07T16:37:08.458Z,12.90
2018-11-07T16:39:36.893Z,12.90
2018-11-07T16:42:05.341Z,12.80
2018-11-07T16:44:33.831Z,12.70
2018-11-07T16:47:02.240Z,12.70
2018-11-07T16:49:30.602Z,12.70
2018-11-07T16:51:59.013Z,12.60
2018-11-07T16:54:27.455Z,12.60
2018-11-07T16:56:55.889Z,12.60
2018-11-07T16:59:24.353Z,12.60
2018-11-07T17:01:52.777Z,12.60
2018-11-07T17:04:21.213Z,12.50
2018-11-07T17:06:50.242Z,12.50
2018-11-07T17:09:18.706Z,12.40
2018-11-07T17:11:47.120Z,12.40
2018-11-07T17:14:15.550Z,12.30
2018-11-07T17:16:43.981Z,12.30
2018-11-07T17:19:12.404Z,12.20
2018-11-07T17:21:40.850Z,12.20
2018-11-07T17:24:09.506Z,12.20
2018-11-07T17:26:37.857Z,12.10
2018-11-07T17:29:06.870Z,12.10
2018-11-07T17:31:35.413Z,12.00
2018-11-07T17:34:03.745Z,11.90
2018-11-07T17:36:32.160Z,11.90
2018-11-07T17:39:00.665Z,11.80
2018-11-07T17:41:29.104Z,11.80
2018-11-07T17:43:57.521Z,11.80
2018-11-07T17:46:25.948Z,11.70
2018-11-07T17:48:54.361Z,11.70
2018-11-07T17:51:22.940Z,11.60
2018-11-07T17:53:51.403Z,11.50
2018-11-07T17:56:19.815Z,11.50
2018-11-07T17:58:48.234Z,11.50
2018-11-07T18:01:16.667Z,11.60
2018-11-07T18:03:45.133Z,11.50
2018-11-07T18:06:13.721Z,11.60
2018-11-07T18:08:42.137Z,11.60
2018-11-07T18:11:10.628Z,11.80
2018-11-07T18:13:39.218Z,11.80
2018-11-07T18:16:07.631Z,11.80
2018-11-07T18:18:36.150Z,11.80
2018-11-07T18:21:04.870Z,11.70
2018-11-07T18:23:33.370Z,11.60
2018-11-07T18:26:01.828Z,11.70
2018-11-07T18:28:30.297Z,11.70
2018-11-07T18:30:58.749Z,11.60
2018-11-07T18:33:27.183Z,11.70
2018-11-07T18:35:55.694Z,11.70
2018-11-07T18:38:25.104Z,11.70
2018-11-07T18:40:53.538Z,11.70
2018-11-07T18:43:21.980Z,11.50
2018-11-07T18:45:50.424Z,11.50
2018-11-07T18:48:18.854Z,11.50
2018-11-07T18:50:47.381Z,11.40
2018-11-07T18:53:15.781Z,11.60
2018-11-07T18:55:44.199Z,11.60
2018-11-07T18:58:12.630Z,11.60
2018-11-07T19:00:41.070Z,11.50
2018-11-07T19:03:09.518Z,11.40
2018-11-07T19:05:38.002Z,11.40
2018-11-07T19:08:06.439Z,11.50
2018-11-07T19:10:34.898Z,11.60
2018-11-07T19:13:03.325Z,11.60
2018-11-07T19:15:31.790Z,11.60
2018-11-07T19:18:00.238Z,11.50
2018-11-07T19:20:28.783Z,11.40
2018-11-07T19:22:57.191Z,11.20
2018-11-07T19:25:25.665Z,11.20
2018-11-07T19:27:54.104Z,11.20
2018-11-07T19:30:23.098Z,11.20
2018-11-07T19:32:53.062Z,11.10
2018-11-07T19:35:21.900Z,11.10
2018-11-07T19:37:50.874Z,11.20
2018-11-07T19:40:21.203Z,11.20
2018-11-07T19:42:49.538Z,11.10
2018-11-07T19:45:19.009Z,11.00
2018-11-07T19:47:47.752Z,11.00
2018-11-07T19:50:17.595Z,11.10
2018-11-07T19:52:47.290Z,11.00
2018-11-07T19:55:17.818Z,11.00
2018-11-07T19:57:48.295Z,11.10
2018-11-07T20:00:17.538Z,11.10
2018-11-07T20:02:46.641Z,11.20
2018-11-07T20:05:15.410Z,11.10
2018-11-07T20:07:43.898Z,11.10
2018-11-07T20:10:14.552Z,11.30
2018-11-07T20:12:43.132Z,11.30
2018-11-07T20:15:12.826Z,11.30
2018-11-07T20:17:41.365Z,11.30
2018-11-07T20:20:10.181Z,11.40
2018-11-07T20:22:38.669Z,11.30
2018-11-07T20:25:08.479Z,11.30
2018-11-07T20:27:36.941Z,11.40
2018-11-07T20:30:07.891Z,11.30
2018-11-07T20:32:36.362Z,11.20
2018-11-07T20:35:06.059Z,11.20
2018-11-07T20:37:34.542Z,11.20
2018-11-07T20:40:03.022Z,11.10
2018-11-07T20:42:31.517Z,11.20
2018-11-07T20:44:59.946Z,11.00
2018-11-07T20:47:28.409Z,11.00
2018-11-07T20:49:56.845Z,11.10
2018-11-07T20:52:25.293Z,11.20
2018-11-07T20:54:53.787Z,11.10
2018-11-07T20:57:22.227Z,11.10
2018-11-07T20:59:50.721Z,11.00
2018-11-07T21:02:19.171Z,11.20
2018-11-07T21:04:47.629Z,11.30
2018-11-07T21:07:16.100Z,11.30
2018-11-07T21:09:44.550Z,11.30
2018-11-07T21:12:13.020Z,11.30
2018-11-07T21:14:41.434Z,11.20
2018-11-07T21:17:09.893Z,11.10
2018-11-07T21:19:38.346Z,11.20
2018-11-07T21:22:09.453Z,11.20
2018-11-07T21:24:37.893Z,11.20
2018-11-07T21:27:06.392Z,11.30
2018-11-07T21:29:35.084Z,11.30
2018-11-07T21:32:03.654Z,11.10
2018-11-07T21:34:32.295Z,11.10
2018-11-07T21:37:00.741Z,11.00
2018-11-07T21:39:29.193Z,11.00
2018-11-07T21:41:57.646Z,11.10
2018-11-07T21:44:26.193Z,11.10
2018-11-07T21:46:54.696Z,11.20
2018-11-07T21:49:23.515Z,11.10
2018-11-07T21:51:51.958Z,11.00
2018-11-07T21:54:20.411Z,11.20
2018-11-07T21:56:48.828Z,11.20
2018-11-07T21:59:17.287Z,11.10
2018-11-07T22:01:45.774Z,11.20
2018-11-07T22:04:14.265Z,11.10
2018-11-07T22:06:42.765Z,11.10
2018-11-07T22:09:12.069Z,11.20
2018-11-07T22:11:40.505Z,11.10
2018-11-07T22:14:09.053Z,11.10
2018-11-07T22:16:38.277Z,11.30
2018-11-07T22:19:07.221Z,11.10
2018-11-07T22:21:35.700Z,11.10
2018-11-07T22:24:04.392Z,11.10
2018-11-07T22:26:32.752Z,11.10
2018-11-07T22:29:01.201Z,11.00
2018-11-07T22:31:29.746Z,11.00
2018-11-07T22:33:58.170Z,10.90
2018-11-07T22:36:26.697Z,10.90
2018-11-07T22:38:55.106Z,10.80
2018-11-07T22:41:23.550Z,10.80
2018-11-07T22:43:51.986Z,10.70
2018-11-07T22:46:20.421Z,10.70
2018-11-07T22:48:48.848Z,10.70
2018-11-07T22:51:17.693Z,10.70
2018-11-07T22:53:46.129Z,10.70
2018-11-07T22:56:14.564Z,10.60
2018-11-07T22:58:43.018Z,10.70
2018-11-07T23:01:16.645Z,10.60
2018-11-07T23:03:46.398Z,10.60
2018-11-07T23:06:14.635Z,10.90
2018-11-07T23:08:43.078Z,11.00
2018-11-07T23:11:11.502Z,11.10
2018-11-07T23:13:39.974Z,11.20
2018-11-07T23:16:08.431Z,11.20
2018-11-07T23:18:36.944Z,11.20
2018-11-07T23:21:06.191Z,11.20
2018-11-07T23:23:34.632Z,11.20
2018-11-07T23:26:03.098Z,11.20
2018-11-07T23:28:31.532Z,11.20
2018-11-07T23:30:59.948Z,11.20
2018-11-07T23:33:28.619Z,11.00
2018-11-07T23:35:57.030Z,11.10
2018-11-07T23:38:26.088Z,11.00
2018-11-07T23:40:54.502Z,10.90
2018-11-07T23:43:22.948Z,10.90
2018-11-07T23:45:51.356Z,10.80
2018-11-07T23:48:19.961Z,10.90
2018-11-07T23:50:48.398Z,10.80
2018-11-07T23:53:16.785Z,10.70
2018-11-07T23:55:45.202Z,10.50
2018-11-07T23:58:13.618Z,10.50
